createdAt,value
2018-05-11T00:00:27.035Z,8.27
2018-05-11T00:02:54.643Z,9.43
2018-05-11T00:05:22.297Z,7.60
2018-05-11T00:07:49.954Z,9.33
2018-05-11T00:10:17.605Z,10.30
2018-05-11T00:12:45.207Z,9.53
2018-05-11T00:15:13.639Z,8.00
2018-05-11T00:17:41.242Z,10.27
2018-05-11T00:20:09.979Z,8.63
2018-05-11T00:22:37.567Z,7.33
2018-05-11T00:25:05.196Z,9.43
2018-05-11T00:27:32.845Z,8.37
2018-05-11T00:30:00.463Z,7.30
2018-05-11T00:32:28.824Z,6.17
2018-05-11T00:34:56.482Z,9.27
2018-05-11T00:37:24.390Z,8.10
2018-05-11T00:39:52.006Z,6.97
2018-05-11T00:42:19.626Z,7.10
2018-05-11T00:44:48.062Z,10.00
2018-05-11T00:47:15.683Z,6.87
2018-05-11T00:49:43.311Z,6.53
2018-05-11T00:52:11.004Z,9.53
2018-05-11T00:54:38.596Z,7.50
2018-05-11T00:57:06.296Z,7.63
2018-05-11T00:59:33.890Z,7.43
2018-05-11T01:02:01.565Z,7.93
2018-05-11T01:04:29.153Z,8.50
2018-05-11T01:06:56.779Z,6.20
2018-05-11T01:09:24.362Z,5.37
2018-05-11T01:11:52.357Z,8.10
2018-05-11T01:14:19.977Z,7.33
2018-05-11T01:16:47.586Z,8.00
2018-05-11T01:19:15.170Z,7.40
2018-05-11T01:21:42.792Z,7.90
2018-05-11T01:24:10.484Z,10.03
2018-05-11T01:26:38.854Z,9.60
2018-05-11T01:29:07.238Z,7.47
2018-05-11T01:31:35.638Z,6.83
2018-05-11T01:34:03.191Z,9.67
2018-05-11T01:36:30.737Z,7.10
2018-05-11T01:38:59.067Z,7.73
2018-05-11T01:41:26.644Z,8.60
2018-05-11T01:43:54.250Z,7.77
2018-05-11T01:46:22.553Z,6.23
2018-05-11T01:48:50.232Z,6.10
2018-05-11T01:51:18.577Z,6.00
2018-05-11T01:53:46.126Z,6.73
2018-05-11T01:56:13.708Z,6.03
2018-05-11T01:58:41.331Z,7.73
2018-05-11T02:01:08.899Z,6.50
2018-05-11T02:03:37.243Z,6.63
2018-05-11T02:06:05.607Z,7.53
2018-05-11T02:08:34.024Z,6.27
2018-05-11T02:11:01.619Z,8.27
2018-05-11T02:13:29.935Z,8.77
2018-05-11T02:15:57.488Z,7.57
2018-05-11T02:18:25.130Z,6.47
2018-05-11T02:20:52.750Z,6.70
2018-05-11T02:23:21.072Z,6.97
2018-05-11T02:25:48.718Z,9.77
2018-05-11T02:28:17.085Z,7.77
2018-05-11T02:30:44.682Z,6.10
2018-05-11T02:33:12.294Z,7.87
2018-05-11T02:35:40.653Z,7.87
2018-05-11T02:38:08.217Z,6.30
2018-05-11T02:40:35.749Z,5.23
2018-05-11T02:43:03.359Z,7.40
2018-05-11T02:45:30.898Z,7.23
2018-05-11T02:47:59.275Z,7.90
2018-05-11T02:50:26.895Z,6.50
2018-05-11T02:52:54.517Z,7.27
2018-05-11T02:55:22.928Z,7.90
2018-05-11T02:57:50.601Z,5.80
2018-05-11T03:00:18.252Z,7.23
2018-05-11T03:02:46.627Z,6.50
2018-05-11T03:05:14.215Z,7.53
2018-05-11T03:07:41.841Z,6.30
2018-05-11T03:10:09.536Z,6.43
2018-05-11T03:12:37.070Z,7.37
2018-05-11T03:15:04.717Z,6.97
2018-05-11T03:17:32.514Z,7.63
2018-05-11T03:20:01.109Z,8.30
2018-05-11T03:22:28.646Z,7.73
2018-05-11T03:24:56.279Z,7.73
2018-05-11T03:27:24.582Z,6.43
2018-05-11T03:29:52.221Z,5.77
2018-05-11T03:32:19.792Z,6.30
2018-05-11T03:34:47.332Z,6.40
2018-05-11T03:37:15.683Z,7.53
2018-05-11T03:39:43.273Z,7.97
2018-05-11T03:42:11.662Z,8.40
2018-05-11T03:44:39.288Z,7.80
2018-05-11T03:47:06.856Z,8.03
2018-05-11T03:49:34.460Z,6.53
2018-05-11T03:52:02.831Z,7.70
2018-05-11T03:54:30.467Z,9.07
2018-05-11T03:56:58.813Z,9.20
2018-05-11T03:59:26.464Z,8.47
2018-05-11T04:02:05.624Z,7.47
2018-05-11T04:07:45.071Z,8.13
2018-05-11T04:10:12.631Z,6.80
2018-05-11T04:12:40.271Z,7.53
2018-05-11T04:15:07.866Z,8.23
2018-05-11T04:17:35.433Z,8.37
2018-05-11T04:20:03.791Z,7.57
2018-05-11T04:22:31.381Z,8.83
2018-05-11T04:24:58.990Z,9.87
2018-05-11T04:27:26.549Z,8.87
2018-05-11T04:29:55.038Z,13.33
2018-05-11T04:32:22.683Z,10.40
2018-05-11T04:34:50.271Z,8.10
2018-05-11T04:37:17.924Z,8.37
2018-05-11T04:39:45.415Z,8.80
2018-05-11T04:42:14.788Z,8.70
2018-05-11T04:44:43.151Z,8.57
2018-05-11T04:47:10.918Z,7.13
2018-05-11T04:49:38.464Z,7.23
2018-05-11T04:52:06.097Z,7.13
2018-05-11T04:54:33.703Z,10.10
2018-05-11T04:57:01.286Z,9.23
2018-05-11T04:59:28.843Z,6.77
2018-05-11T05:01:56.402Z,6.23
2018-05-11T05:04:23.991Z,7.80
2018-05-11T05:06:52.329Z,12.00
2018-05-11T05:09:19.914Z,7.37
2018-05-11T05:11:47.528Z,6.23
2018-05-11T05:14:15.155Z,6.77
2018-05-11T05:16:42.787Z,6.77
2018-05-11T05:19:10.394Z,6.13
2018-05-11T05:21:37.976Z,7.70
2018-05-11T05:24:05.548Z,9.53
2018-05-11T05:26:33.101Z,8.63
2018-05-11T05:29:00.699Z,10.77
2018-05-11T05:31:28.276Z,12.33
2018-05-11T05:33:56.714Z,7.60
2018-05-11T05:36:24.329Z,7.93
2018-05-11T05:38:51.882Z,6.87
2018-05-11T05:41:20.261Z,6.70
2018-05-11T05:43:48.566Z,5.17
2018-05-11T05:46:16.096Z,7.80
2018-05-11T05:48:44.485Z,10.10
2018-05-11T05:51:12.098Z,6.97
2018-05-11T05:53:40.444Z,6.13
2018-05-11T05:56:08.055Z,10.37
2018-05-11T05:58:35.681Z,7.37
2018-05-11T06:01:03.285Z,12.63
2018-05-11T06:03:31.637Z,9.40
2018-05-11T06:05:59.232Z,5.73
2018-05-11T06:08:26.785Z,12.17
2018-05-11T06:10:55.116Z,6.40
2018-05-11T06:13:22.700Z,7.50
2018-05-11T06:15:50.349Z,13.17
2018-05-11T06:18:17.891Z,6.43
2018-05-11T06:20:45.428Z,8.73
2018-05-11T06:23:12.997Z,8.33
2018-05-11T06:25:40.548Z,7.43
2018-05-11T06:28:08.150Z,7.60
2018-05-11T06:30:35.674Z,7.40
2018-05-11T06:33:03.249Z,9.90
2018-05-11T06:35:30.785Z,11.00
2018-05-11T06:37:58.314Z,6.33
2018-05-11T06:40:25.861Z,9.57
2018-05-11T06:42:53.434Z,6.90
2018-05-11T06:45:21.041Z,8.07
2018-05-11T06:47:48.520Z,7.73
2018-05-11T06:50:16.096Z,8.00
2018-05-11T06:52:43.751Z,7.13
2018-05-11T06:55:11.330Z,7.73
2018-05-11T06:57:38.877Z,7.37
2018-05-11T07:00:06.454Z,8.40
2018-05-11T07:02:34.762Z,6.27
2018-05-11T07:05:02.298Z,6.07
2018-05-11T07:07:30.309Z,8.87
2018-05-11T07:09:57.867Z,7.60
2018-05-11T07:12:25.386Z,7.90
2018-05-11T07:14:52.916Z,9.40
2018-05-11T07:17:21.383Z,7.33
2018-05-11T07:19:48.963Z,8.30
2018-05-11T07:22:16.487Z,7.97
2018-05-11T07:24:44.789Z,6.33
2018-05-11T07:27:12.362Z,6.63
2018-05-11T07:29:40.026Z,6.77
2018-05-11T07:32:07.572Z,6.87
2018-05-11T07:34:35.081Z,7.93
2018-05-11T07:37:02.648Z,7.67
2018-05-11T07:39:30.223Z,8.07
2018-05-11T07:41:57.757Z,8.50
2018-05-11T07:44:26.087Z,10.53
2018-05-11T07:46:53.690Z,8.90
2018-05-11T07:49:21.978Z,7.07
2018-05-11T07:51:49.510Z,11.93
2018-05-11T07:54:17.127Z,10.20
2018-05-11T07:56:44.708Z,7.73
2018-05-11T07:59:12.325Z,9.87
2018-05-11T08:01:40.727Z,10.90
2018-05-11T08:04:08.297Z,10.30
2018-05-11T08:06:35.839Z,8.97
2018-05-11T08:09:03.452Z,12.00
2018-05-11T08:11:31.792Z,10.27
2018-05-11T08:13:59.383Z,10.77
2018-05-11T08:16:26.910Z,11.83
2018-05-11T08:18:54.446Z,14.33
2018-05-11T08:21:21.979Z,10.30
2018-05-11T08:23:50.454Z,10.13
2018-05-11T08:26:18.014Z,12.47
2018-05-11T08:28:46.338Z,12.70
2018-05-11T08:31:13.901Z,11.80
2018-05-11T08:33:41.458Z,8.63
2018-05-11T08:36:09.008Z,15.13
2018-05-11T08:38:36.690Z,10.23
2018-05-11T08:41:04.254Z,12.60
2018-05-11T08:43:33.434Z,9.23
2018-05-11T08:46:01.769Z,10.23
2018-05-11T08:48:29.424Z,12.50
2018-05-11T08:50:57.050Z,10.87
2018-05-11T08:53:24.626Z,10.47
2018-05-11T08:55:52.308Z,7.77
2018-05-11T08:58:19.952Z,9.20
2018-05-11T09:00:47.528Z,11.07
2018-05-11T09:03:15.846Z,12.07
2018-05-11T09:05:43.423Z,12.90
2018-05-11T09:08:11.774Z,12.80
2018-05-11T09:10:40.158Z,10.83
2018-05-11T09:13:07.714Z,12.27
2018-05-11T09:15:35.457Z,10.30
2018-05-11T09:18:03.837Z,11.97
2018-05-11T09:20:31.588Z,11.30
2018-05-11T09:22:59.210Z,9.83
2018-05-11T09:25:26.774Z,9.47
2018-05-11T09:27:54.371Z,10.17
2018-05-11T09:30:21.906Z,9.57
2018-05-11T09:32:49.473Z,10.10
2018-05-11T09:35:17.029Z,10.20
2018-05-11T09:37:44.598Z,10.33
2018-05-11T09:40:12.128Z,10.57
2018-05-11T09:42:39.722Z,12.03
2018-05-11T09:45:07.309Z,11.50
2018-05-11T09:47:34.904Z,11.97
2018-05-11T09:50:02.481Z,10.57
2018-05-11T09:52:30.031Z,9.87
2018-05-11T09:54:59.438Z,12.83
2018-05-11T09:57:27.139Z,10.67
2018-05-11T09:59:54.811Z,13.20
2018-05-11T10:02:22.355Z,11.07
2018-05-11T10:04:49.994Z,11.37
2018-05-11T10:07:17.537Z,12.33
2018-05-11T10:09:45.141Z,10.63
2018-05-11T10:12:13.520Z,10.93
2018-05-11T10:14:41.886Z,11.23
2018-05-11T10:17:09.510Z,12.03
2018-05-11T10:19:37.068Z,12.43
2018-05-11T10:22:04.600Z,10.83
2018-05-11T10:24:32.194Z,11.93
2018-05-11T10:26:59.810Z,12.27
2018-05-11T10:29:28.233Z,15.70
2018-05-11T10:31:55.879Z,14.50
2018-05-11T10:34:23.612Z,11.93
2018-05-11T10:36:51.309Z,10.20
2018-05-11T10:39:19.072Z,11.03
2018-05-11T10:41:47.035Z,10.80
2018-05-11T10:44:14.828Z,10.53
2018-05-11T10:46:48.374Z,11.30
2018-05-11T10:51:48.625Z,11.50
2018-05-11T10:54:28.713Z,11.73
2018-05-11T10:56:56.929Z,12.00
2018-05-11T10:59:26.910Z,12.27
2018-05-11T11:01:55.166Z,11.10
2018-05-11T11:04:22.718Z,11.63
2018-05-11T11:06:50.384Z,11.70
2018-05-11T11:09:26.203Z,12.97
2018-05-11T11:11:54.790Z,12.93
2018-05-11T11:14:23.880Z,12.20
2018-05-11T11:16:52.245Z,10.83
2018-05-11T11:19:19.873Z,12.87
2018-05-11T11:21:48.437Z,14.13
2018-05-11T11:24:15.988Z,10.03
2018-05-11T11:26:43.578Z,10.77
2018-05-11T11:29:11.153Z,11.43
2018-05-11T11:31:38.777Z,14.10
2018-05-11T11:36:46.118Z,12.13
2018-05-11T11:39:13.709Z,12.57
2018-05-11T11:41:41.282Z,11.10
2018-05-11T11:44:08.867Z,12.73
2018-05-11T11:46:36.434Z,11.60
2018-05-11T11:49:04.078Z,12.03
2018-05-11T11:51:31.619Z,13.90
2018-05-11T11:53:59.227Z,11.30
2018-05-11T11:56:26.867Z,11.63
2018-05-11T11:58:54.411Z,11.50
2018-05-11T12:01:22.742Z,14.40
2018-05-11T12:03:50.345Z,11.83
2018-05-11T12:06:18.724Z,10.37
2018-05-11T12:08:47.073Z,10.87
2018-05-11T12:11:14.700Z,10.93
2018-05-11T12:13:42.285Z,11.43
2018-05-11T12:16:09.851Z,15.80
2018-05-11T12:18:38.021Z,16.30
2018-05-11T12:21:05.587Z,11.03
2018-05-11T12:23:33.244Z,12.00
2018-05-11T12:26:00.890Z,13.87
2018-05-11T12:28:28.452Z,14.07
2018-05-11T12:30:56.101Z,12.07
2018-05-11T12:33:23.694Z,17.03
2018-05-11T12:35:51.265Z,13.00
2018-05-11T12:38:18.853Z,13.33
2018-05-11T12:40:46.502Z,11.40
2018-05-11T12:43:14.794Z,13.77
2018-05-11T12:45:43.176Z,14.60
2018-05-11T12:48:10.737Z,14.83
2018-05-11T12:50:39.036Z,12.50
2018-05-11T12:53:10.876Z,12.10
2018-05-11T12:55:38.411Z,13.13
2018-05-11T12:58:05.993Z,12.13
2018-05-11T13:00:33.561Z,12.17
2018-05-11T13:03:01.138Z,13.80
2018-05-11T13:05:29.030Z,13.67
2018-05-11T13:07:56.665Z,11.90
2018-05-11T13:10:24.344Z,14.50
2018-05-11T13:12:52.014Z,13.50
2018-05-11T13:15:20.386Z,13.13
2018-05-11T13:17:47.972Z,12.80
2018-05-11T13:20:15.568Z,12.33
2018-05-11T13:22:43.917Z,16.57
2018-05-11T13:25:11.485Z,14.23
2018-05-11T13:27:39.119Z,12.13
2018-05-11T13:30:06.734Z,13.17
2018-05-11T13:32:34.322Z,14.20
2018-05-11T13:35:01.943Z,13.70
2018-05-11T13:37:30.358Z,14.53
2018-05-11T13:39:57.976Z,12.07
2018-05-11T13:42:26.872Z,15.23
2018-05-11T13:44:54.505Z,12.97
2018-05-11T13:47:22.102Z,16.33
2018-05-11T13:49:50.473Z,12.53
2018-05-11T13:52:18.965Z,10.37
2018-05-11T13:54:47.292Z,16.00
2018-05-11T13:57:14.908Z,13.97
2018-05-11T13:59:42.543Z,13.10
2018-05-11T14:02:10.199Z,14.37
2018-05-11T14:04:37.851Z,12.30
2018-05-11T14:07:05.361Z,12.40
2018-05-11T14:09:32.982Z,14.00
2018-05-11T14:12:00.590Z,13.10
2018-05-11T14:14:28.183Z,14.83
2018-05-11T14:16:55.737Z,11.00
2018-05-11T14:19:23.417Z,12.57
2018-05-11T14:21:51.060Z,12.07
2018-05-11T14:24:18.682Z,11.70
2018-05-11T14:26:46.346Z,13.77
2018-05-11T14:29:13.986Z,12.57
2018-05-11T14:31:42.449Z,12.07
2018-05-11T14:34:10.065Z,13.20
2018-05-11T14:36:37.681Z,12.87
2018-05-11T14:39:05.325Z,12.50
2018-05-11T14:41:33.837Z,12.47
2018-05-11T14:44:01.405Z,12.37
2018-05-11T14:46:29.783Z,11.77
2018-05-11T14:48:58.094Z,10.07
2018-05-11T14:51:25.754Z,9.60
2018-05-11T14:53:53.400Z,11.00
2018-05-11T14:56:20.974Z,12.87
2018-05-11T14:58:48.656Z,11.63
2018-05-11T15:01:16.930Z,13.00
2018-05-11T15:03:45.347Z,11.47
2018-05-11T15:06:13.707Z,12.90
2018-05-11T15:08:41.403Z,13.93
2018-05-11T15:11:09.714Z,10.97
2018-05-11T15:13:37.586Z,11.17
2018-05-11T15:16:05.380Z,14.33
2018-05-11T15:18:33.042Z,10.40
2018-05-11T15:21:00.693Z,12.33
2018-05-11T15:23:28.265Z,9.50
2018-05-11T15:25:55.899Z,10.40
2018-05-11T15:28:23.495Z,8.50
2018-05-11T15:30:51.066Z,9.73
2018-05-11T15:33:19.495Z,10.70
2018-05-11T15:35:47.032Z,8.07
2018-05-11T15:38:14.683Z,11.43
2018-05-11T15:40:43.042Z,12.27
2018-05-11T15:43:11.451Z,11.33
2018-05-11T15:45:39.005Z,8.90
2018-05-11T15:48:06.556Z,12.50
2018-05-11T15:50:34.182Z,10.10
2018-05-11T15:53:01.824Z,11.40
2018-05-11T15:55:29.510Z,14.03
2018-05-11T15:57:57.069Z,11.40
2018-05-11T16:00:24.697Z,11.17
2018-05-11T16:02:53.020Z,13.17
2018-05-11T16:05:20.681Z,11.47
2018-05-11T16:07:48.383Z,14.23
2018-05-11T16:10:15.957Z,14.57
2018-05-11T16:12:43.681Z,14.47
2018-05-11T16:15:11.242Z,9.40
2018-05-11T16:17:38.815Z,10.07
2018-05-11T16:20:06.567Z,10.53
2018-05-11T16:22:34.919Z,11.43
2018-05-11T16:25:02.521Z,10.70
2018-05-11T16:27:30.121Z,8.67
2018-05-11T16:29:57.775Z,9.87
2018-05-11T16:32:25.616Z,7.93
2018-05-11T16:34:53.202Z,6.40
2018-05-11T16:37:21.658Z,6.93
2018-05-11T16:39:49.199Z,9.97
2018-05-11T16:42:16.917Z,7.43
2018-05-11T16:44:44.455Z,8.97
2018-05-11T16:47:12.756Z,6.40
2018-05-11T16:49:42.900Z,7.93
2018-05-11T16:52:10.502Z,7.60
2018-05-11T16:54:38.081Z,7.53
2018-05-11T16:57:05.627Z,7.53
2018-05-11T16:59:33.195Z,7.30
2018-05-11T17:02:00.735Z,6.73
2018-05-11T17:04:28.325Z,7.20
2018-05-11T17:06:55.954Z,6.83
2018-05-11T17:09:23.563Z,11.47
2018-05-11T17:11:51.113Z,6.17
2018-05-11T17:14:18.680Z,8.23
2018-05-11T17:16:46.282Z,6.80
2018-05-11T17:19:13.825Z,8.07
2018-05-11T17:21:42.164Z,7.23
2018-05-11T17:24:10.483Z,9.20
2018-05-11T17:26:38.102Z,9.43
2018-05-11T17:29:06.468Z,7.00
2018-05-11T17:31:34.075Z,8.00
2018-05-11T17:34:01.640Z,7.47
2018-05-11T17:36:30.316Z,7.80
2018-05-11T17:38:57.945Z,7.90
2018-05-11T17:41:25.544Z,8.73
2018-05-11T17:43:53.131Z,13.30
2018-05-11T17:46:21.448Z,8.50
2018-05-11T17:48:48.995Z,8.13
2018-05-11T17:51:16.543Z,9.63
2018-05-11T17:53:44.237Z,9.00
2018-05-11T17:56:11.861Z,11.43
2018-05-11T17:58:39.411Z,9.93
2018-05-11T18:01:07.717Z,9.53
2018-05-11T18:03:35.296Z,12.17
2018-05-11T18:06:03.520Z,9.67
2018-05-11T18:08:31.845Z,8.07
2018-05-11T18:10:59.387Z,8.93
2018-05-11T18:13:27.196Z,8.70
2018-05-11T18:15:54.769Z,8.50
2018-05-11T18:18:22.342Z,9.47
2018-05-11T18:20:49.861Z,9.77
2018-05-11T18:23:19.098Z,7.70
2018-05-11T18:25:47.446Z,7.60
2018-05-11T18:28:15.304Z,8.73
2018-05-11T18:30:42.851Z,11.60
2018-05-11T18:33:10.450Z,8.57
2018-05-11T18:35:38.058Z,9.13
2018-05-11T18:38:05.589Z,9.77
2018-05-11T18:40:33.927Z,7.97
2018-05-11T18:43:02.381Z,9.00
2018-05-11T18:45:29.934Z,10.40
2018-05-11T18:47:57.456Z,9.53
2018-05-11T18:50:26.962Z,8.27
2018-05-11T18:52:54.993Z,9.30
2018-05-11T18:55:22.459Z,9.93
2018-05-11T18:57:49.989Z,9.07
2018-05-11T19:00:17.558Z,7.80
2018-05-11T19:02:45.133Z,11.03
2018-05-11T19:05:12.734Z,9.67
2018-05-11T19:07:41.029Z,9.53
2018-05-11T19:10:08.660Z,11.83
2018-05-11T19:12:37.053Z,9.73
2018-05-11T19:15:05.365Z,10.33
2018-05-11T19:17:32.995Z,10.40
2018-05-11T19:20:01.340Z,15.70
2018-05-11T19:22:28.941Z,10.40
2018-05-11T19:24:56.503Z,12.80
2018-05-11T19:27:24.101Z,12.17
2018-05-11T19:29:51.673Z,11.23
2018-05-11T19:32:20.030Z,14.47
2018-05-11T19:34:47.581Z,13.73
2018-05-11T19:37:15.191Z,11.43
2018-05-11T19:39:42.806Z,10.90
2018-05-11T19:42:10.357Z,11.37
2018-05-11T19:44:37.939Z,11.80
2018-05-11T19:47:05.484Z,12.20
2018-05-11T19:49:33.081Z,11.30
2018-05-11T19:52:00.664Z,13.43
2018-05-11T19:54:29.082Z,19.63
2018-05-11T19:56:56.619Z,12.23
2018-05-11T19:59:25.668Z,14.00
2018-05-11T20:01:53.254Z,11.67
2018-05-11T20:04:21.585Z,13.80
2018-05-11T20:06:49.118Z,13.30
2018-05-11T20:09:17.257Z,14.27
2018-05-11T20:11:45.558Z,13.73
2018-05-11T20:14:13.886Z,12.07
2018-05-11T20:16:41.479Z,11.87
2018-05-11T20:19:09.113Z,12.03
2018-05-11T20:21:36.662Z,11.67
2018-05-11T20:24:04.409Z,10.97
2018-05-11T20:26:31.948Z,11.70
2018-05-11T20:28:59.481Z,11.20
2018-05-11T20:31:27.059Z,12.43
2018-05-11T20:33:54.605Z,12.80
2018-05-11T20:36:22.961Z,13.50
2018-05-11T20:38:50.626Z,12.83
2018-05-11T20:41:18.212Z,13.57
2018-05-11T20:43:46.527Z,14.10
2018-05-11T20:46:14.187Z,12.80
2018-05-11T20:48:41.742Z,12.93
2018-05-11T20:51:09.323Z,11.33
2018-05-11T20:53:36.900Z,12.23
2018-05-11T20:56:04.440Z,12.03
2018-05-11T20:58:32.039Z,13.67
2018-05-11T21:00:59.600Z,12.67
2018-05-11T21:03:28.033Z,12.80
2018-05-11T21:05:55.644Z,12.60
2018-05-11T21:08:24.066Z,14.80
2018-05-11T21:10:52.443Z,13.40
2018-05-11T21:13:20.723Z,13.80
2018-05-11T21:15:48.306Z,13.17
2018-05-11T21:18:15.849Z,12.20
2018-05-11T21:20:43.399Z,15.17
2018-05-11T21:23:10.928Z,13.70
2018-05-11T21:25:39.280Z,12.70
2018-05-11T21:28:06.874Z,13.57
2018-05-11T21:30:35.213Z,14.60
2018-05-11T21:33:02.790Z,13.40
2018-05-11T21:35:30.357Z,12.43
2018-05-11T21:37:57.963Z,14.47
2018-05-11T21:40:25.499Z,12.77
2018-05-11T21:42:53.092Z,13.53
2018-05-11T21:45:23.442Z,14.03
2018-05-11T21:47:51.026Z,13.27
2018-05-11T21:50:18.610Z,13.30
2018-05-11T21:52:46.313Z,16.33
2018-05-11T21:55:13.858Z,13.13
2018-05-11T21:57:42.272Z,13.73
2018-05-11T22:00:09.862Z,14.60
2018-05-11T22:02:37.411Z,14.20
2018-05-11T22:05:05.030Z,14.67
2018-05-11T22:07:32.590Z,13.60
2018-05-11T22:10:00.120Z,14.60
2018-05-11T22:12:27.697Z,13.23
2018-05-11T22:14:55.271Z,14.53
2018-05-11T22:17:22.879Z,13.83
2018-05-11T22:19:51.153Z,16.17
2018-05-11T22:22:19.477Z,14.10
2018-05-11T22:24:47.335Z,16.23
2018-05-11T22:27:14.875Z,14.53
2018-05-11T22:29:42.426Z,14.17
2018-05-11T22:32:09.992Z,15.30
2018-05-11T22:34:37.531Z,14.83
2018-05-11T22:37:05.853Z,15.00
2018-05-11T22:39:33.409Z,14.97
2018-05-11T22:42:01.054Z,15.40
2018-05-11T22:44:28.537Z,17.13
2018-05-11T22:46:56.078Z,15.00
2018-05-11T22:49:23.875Z,14.87
2018-05-11T22:51:51.437Z,14.37
2018-05-11T22:54:19.962Z,16.33
2018-05-11T22:56:48.253Z,16.70
2018-05-11T22:59:15.845Z,14.73
2018-05-11T23:01:43.413Z,16.80
2018-05-11T23:04:11.048Z,15.13
2018-05-11T23:06:38.658Z,15.10
2018-05-11T23:09:06.198Z,14.83
2018-05-11T23:11:33.771Z,15.03
2018-05-11T23:14:01.375Z,16.67
2018-05-11T23:16:28.985Z,16.33
2018-05-11T23:18:56.531Z,17.40
2018-05-11T23:21:24.100Z,15.97
2018-05-11T23:23:51.645Z,18.27
2018-05-11T23:26:19.185Z,16.20
2018-05-11T23:28:46.742Z,15.93
2018-05-11T23:31:14.263Z,15.77
2018-05-11T23:33:42.585Z,15.27
2018-05-11T23:36:10.117Z,16.03
2018-05-11T23:38:38.433Z,16.73
2018-05-11T23:41:05.985Z,16.43
2018-05-11T23:43:33.594Z,16.93
2018-05-11T23:46:01.130Z,18.17
2018-05-11T23:48:29.260Z,16.93
2018-05-11T23:50:57.572Z,16.83
2018-05-11T23:53:25.130Z,18.57
2018-05-11T23:55:52.952Z,16.70
2018-05-11T23:58:20.523Z,17.37
